• Join FlightAware (Why Join?)
  • Login
  • US Flag 
09:26PM EDT


 

Airport Tracker/Info


-or-


 

Live Flight TrackerFlight Track Log ✈ N770NC ✈ 13-Jun-2013 ✈ KATL - KSAV

Flight Track Log - Related Links

Times and Time Zones

All times are in EDT time to prevent confusion due to time zone crossing. See the N770NC flight status page for this flight to view local times or setup timezone preferences in your user account.

Time Position Orientation Groundspeed Altitude Reporting Facility
EDT Latitude Longitude Course Direction KTS MPH feet Rate Location/Type
10:14AM 33.6286 -84.4656 128° Southeast 409 471 2,600  Level Atlanta Center
10:14AM 33.6167 -84.4833 231° Southwest 203 234 3,300 1,980 Climbing Atlanta TRACON
10:15AM 33.5950 -84.5275 240° Southwest 323 372 4,600 2,220 Climbing Atlanta Center
10:16AM 33.5322 -84.5722 211° Southwest 239 275 7,000 2,340 Climbing Atlanta Center
10:17AM 33.2225 -84.2567 163° South  Level FlightAware Approximate
10:17AM 33.4678 -84.5119 142° Southeast 303 349 9,300  Level Atlanta Center
10:18AM 33.1190 -84.2190 163° South  Level FlightAware Approximate
10:18AM 33.4094 -84.4319 131° Southeast 323 372 11,200  Level Atlanta Center
10:19AM 33.0335 -84.1500 128° Southeast  Level FlightAware Approximate
10:19AM 33.3408 -84.3422 132° Southeast 345 397 12,800  Level Atlanta Center
10:20AM 33.2722 -84.2475 131° Southeast 364 419 15,200 2,100 Climbing Atlanta Center
10:21AM 33.2014 -84.1431 129° Southeast 388 447 17,100 1,800 Climbing Atlanta Center
10:22AM 33.1200 -84.0536 137° Southeast 388 447 18,900 1,560 Climbing Atlanta Center
10:23AM 33.0408 -83.9744 140° Southeast 401 461 20,300 1,560 Climbing Atlanta Center
10:24AM 32.9406 -83.8878 144° Southeast 424 488 22,100 1,320 Climbing Atlanta Center
10:25AM 32.8400 -83.8039 145° Southeast 437 503 23,000 420 Climbing Atlanta Center
10:26AM 32.7397 -83.7078 141° Southeast 455 524 23,000 -480 Level Atlanta Center
10:27AM 32.6517 -83.5997 134° Southeast 455 524 22,100 -900 Descending Atlanta Center
10:28AM 32.6072 -83.4594 111° Southeast 443 510 21,200 -900 Descending Atlanta Center
10:29AM 32.5878 -83.3092 99° East 433 498 20,300 -960 Descending Atlanta Center
10:30AM 32.5783 -83.1661 94° East 433 498 19,300 -1,140 Descending Atlanta Center
10:31AM 32.5794 -83.0258 89° East 433 498 18,100 -1,140 Descending Atlanta Center
10:32AM 32.5636 -82.8853 98° East 427 491 17,100 -480 Descending Atlanta Center
10:33AM 32.5372 -82.7528 103° East 417 480 17,200 -60 Climbing Atlanta Center
10:34AM 32.5042 -82.6053 105° East 417 480 17,000 -120 Descending Atlanta Center
10:36AM 32.4242 -82.3486 110° East 440 506 17,000 -780 Level Jacksonville Center
10:37AM 32.3881 -82.2111 107° East 404 465 14,800 -2,580 Descending Jacksonville Center
10:38AM 32.3583 -82.0981 107° East 398 458 11,900 -1,920 Descending Jacksonville Center
10:39AM 32.3219 -81.9658 108° East 393 452 11,000 -900 Descending Jacksonville Center
10:40AM 32.3208 -81.8575 91° East 368 423 10,200 -720 Descending Jacksonville Center
10:41AM 32.3283 -81.7542 85° East 342 394 9,600 -1,260 Descending Jacksonville Center
10:42AM 32.3253 -81.6461 92° East 294 338 7,700 -1,740 Descending Jacksonville Center
10:43AM 32.3225 -81.5625 92° East 288 331 6,200 -1,740 Descending Jacksonville Center
10:44AM 32.3150 -81.4569 95° East 288 331 4,300 -1,620 Descending Jacksonville Center
10:45AM 32.2889 -81.3689 109° East 283 326 3,000 -1,200 Descending Jacksonville Center
10:46AM 32.2608 -81.2833 111° Southeast 278 320 2,000 -1,020 Descending Jacksonville Center